Time,TemperatureF,DewpointF,PressureIn,WindDirection,WindDirectionDegrees,WindSpeedMPH,WindSpeedGustMPH,Humidity,HourlyPrecipIn,Conditions,Clouds,dailyrainin,SoftwareType,DateUTC
2013-03-15 00:00:00,29.0,10.0,-100.00,NW,306,18.0,32.0,43,-99.99,,,-99.99,,2013-03-15 06:00:00,
2013-03-15 00:42:00,29.0,10.0,-100.00,NW,306,18.0,32.0,43,-99.99,,,-99.99,,2013-03-15 06:42:00,
2013-03-15 00:53:00,29.0,10.0,-100.00,NW,306,18.0,32.0,43,-99.99,,,-99.99,,2013-03-15 06:53:00,
2013-03-15 01:00:00,29.0,11.0,-100.00,WNW,294,13.0,27.0,46,-99.99,,,-99.99,,2013-03-15 07:00:00,
2013-03-15 01:42:00,29.0,11.0,-100.00,WNW,294,13.0,27.0,46,-99.99,,,-99.99,,2013-03-15 07:42:00,
2013-03-15 01:52:00,29.0,11.0,-100.00,WNW,294,13.0,27.0,46,-99.99,,,-99.99,,2013-03-15 07:52:00,
2013-03-15 02:00:00,29.0,12.0,-100.00,WNW,283,13.0,30.0,49,-99.99,,,-99.99,,2013-03-15 08:00:00,
2013-03-15 02:42:00,29.0,12.0,-100.00,WNW,283,13.0,30.0,49,-99.99,,,-99.99,,2013-03-15 08:42:00,
2013-03-15 02:52:00,29.0,12.0,-100.00,WNW,283,13.0,30.0,49,-99.99,,,-99.99,,2013-03-15 08:52:00,
2013-03-15 04:00:00,30.0,14.0,-100.00,WNW,288,21.0,46.0,52,-99.99,,,-99.99,,2013-03-15 10:00:00,
2013-03-15 04:43:00,30.0,14.0,-100.00,WNW,288,21.0,46.0,52,-99.99,,,-99.99,,2013-03-15 10:43:00,
2013-03-15 04:52:00,30.0,14.0,-100.00,WNW,288,21.0,46.0,52,-99.99,,,-99.99,,2013-03-15 10:52:00,
2013-03-15 05:00:00,30.0,14.0,-100.00,WNW,294,25.0,42.0,51,-99.99,,,-99.99,,2013-03-15 11:00:00,
2013-03-15 05:42:00,30.0,14.0,-100.00,WNW,294,25.0,42.0,51,-99.99,,,-99.99,,2013-03-15 11:42:00,
2013-03-15 05:52:00,30.0,14.0,-100.00,WNW,294,25.0,42.0,51,-99.99,,,-99.99,,2013-03-15 11:52:00,
2013-03-15 07:00:00,30.0,12.0,-100.00,WNW,299,26.0,44.0,47,-99.99,,,-99.99,,2013-03-15 13:00:00,
2013-03-15 07:42:00,30.0,12.0,-100.00,WNW,299,26.0,44.0,47,-99.99,,,-99.99,,2013-03-15 13:42:00,
2013-03-15 07:52:00,30.0,12.0,-100.00,WNW,299,26.0,44.0,47,-99.99,,,-99.99,,2013-03-15 13:52:00,
2013-03-15 08:00:00,30.0,11.0,-100.00,NW,317,23.0,36.0,44,-99.99,,,-99.99,,2013-03-15 14:00:00,
2013-03-15 08:42:00,30.0,11.0,-100.00,NW,317,23.0,36.0,44,-99.99,,,-99.99,,2013-03-15 14:42:00,
2013-03-15 08:53:00,30.0,11.0,-100.00,NW,317,23.0,36.0,44,-99.99,,,-99.99,,2013-03-15 14:53:00,
2013-03-15 09:00:00,32.0,12.0,-100.00,NW,313,24.0,40.0,43,-99.99,,,-99.99,,2013-03-15 15:00:00,
2013-03-15 09:43:00,32.0,12.0,-100.00,NW,313,24.0,40.0,43,-99.99,,,-99.99,,2013-03-15 15:43:00,
2013-03-15 09:53:00,32.0,12.0,-100.00,NW,313,24.0,40.0,43,-99.99,,,-99.99,,2013-03-15 15:53:00,
2013-03-15 12:00:00,35.0,12.0,-100.00,NW,307,27.0,43.0,38,-99.99,,,-99.99,,2013-03-15 18:00:00,
2013-03-15 12:42:00,35.0,12.0,-100.00,NW,307,27.0,43.0,38,-99.99,,,-99.99,,2013-03-15 18:42:00,
2013-03-15 12:52:00,35.0,12.0,-100.00,NW,307,27.0,43.0,38,-99.99,,,-99.99,,2013-03-15 18:52:00,
2013-03-15 13:00:00,36.0,10.0,-100.00,NW,307,25.0,47.0,35,-99.99,,,-99.99,,2013-03-15 19:00:00,
2013-03-15 13:42:00,36.0,10.0,-100.00,NW,307,25.0,47.0,35,-99.99,,,-99.99,,2013-03-15 19:42:00,
2013-03-15 13:52:00,36.0,10.0,-100.00,NW,307,25.0,47.0,35,-99.99,,,-99.99,,2013-03-15 19:52:00,
2013-03-15 14:00:00,36.0,11.0,-100.00,WNW,300,22.0,37.0,35,-99.99,,,-99.99,,2013-03-15 20:00:00,
2013-03-15 14:42:00,36.0,11.0,-100.00,WNW,300,22.0,37.0,35,-99.99,,,-99.99,,2013-03-15 20:42:00,
2013-03-15 14:52:00,36.0,11.0,-100.00,WNW,300,22.0,37.0,35,-99.99,,,-99.99,,2013-03-15 20:52:00,
2013-03-15 15:00:00,36.0,11.0,-100.00,WNW,294,27.0,46.0,36,-99.99,,,-99.99,,2013-03-15 21:00:00,
2013-03-15 15:43:00,36.0,11.0,-100.00,WNW,294,27.0,46.0,36,-99.99,,,-99.99,,2013-03-15 21:43:00,
2013-03-15 15:53:00,36.0,11.0,-100.00,WNW,294,27.0,46.0,36,-99.99,,,-99.99,,2013-03-15 21:53:00,
2013-03-15 16:00:00,36.0,12.0,-100.00,WNW,295,23.0,40.0,37,-99.99,,,-99.99,,2013-03-15 22:00:00,
2013-03-15 16:42:00,36.0,12.0,-100.00,WNW,295,23.0,40.0,37,-99.99,,,-99.99,,2013-03-15 22:42:00,
2013-03-15 16:53:00,36.0,12.0,-100.00,WNW,295,23.0,40.0,37,-99.99,,,-99.99,,2013-03-15 22:53:00,
2013-03-15 17:00:00,36.0,13.0,-100.00,WNW,293,21.0,40.0,38,-99.99,,,-99.99,,2013-03-15 23:00:00,
2013-03-15 17:42:00,36.0,13.0,-100.00,WNW,293,21.0,40.0,38,-99.99,,,-99.99,,2013-03-15 23:42:00,
2013-03-15 17:53:00,36.0,13.0,-100.00,WNW,293,21.0,40.0,38,-99.99,,,-99.99,,2013-03-15 23:53:00,
2013-03-15 18:00:00,34.0,14.0,-100.00,NW,304,19.0,32.0,43,-99.99,,,-99.99,,2013-03-16 00:00:00,
2013-03-15 18:42:00,34.0,14.0,-100.00,NW,304,19.0,32.0,43,-99.99,,,-99.99,,2013-03-16 00:42:00,
2013-03-15 18:52:00,34.0,14.0,-100.00,NW,304,19.0,32.0,43,-99.99,,,-99.99,,2013-03-16 00:52:00,
2013-03-15 19:00:00,33.0,13.0,-100.00,WNW,294,15.0,32.0,44,-99.99,,,-99.99,,2013-03-16 01:00:00,
2013-03-15 19:42:00,33.0,13.0,-100.00,WNW,294,15.0,32.0,44,-99.99,,,-99.99,,2013-03-16 01:42:00,
2013-03-15 19:53:00,33.0,13.0,-100.00,WNW,294,15.0,32.0,44,-99.99,,,-99.99,,2013-03-16 01:53:00,
2013-03-15 21:00:00,31.0,13.0,-100.00,NW,316,13.0,23.0,47,-99.99,,,-99.99,,2013-03-16 03:00:00,
2013-03-15 21:43:00,31.0,13.0,-100.00,NW,316,13.0,23.0,47,-99.99,,,-99.99,,2013-03-16 03:43:00,
2013-03-15 21:53:00,31.0,13.0,-100.00,NW,316,13.0,23.0,47,-99.99,,,-99.99,,2013-03-16 03:53:00,
2013-03-15 22:00:00,30.0,14.0,-100.00,WNW,300,11.0,24.0,52,-99.99,,,-99.99,,2013-03-16 04:00:00,
2013-03-15 22:43:00,30.0,14.0,-100.00,WNW,300,11.0,24.0,52,-99.99,,,-99.99,,2013-03-16 04:43:00,
2013-03-15 22:53:00,30.0,14.0,-100.00,WNW,300,11.0,24.0,52,-99.99,,,-99.99,,2013-03-16 04:53:00,